This is the latest recevied weather packets stored in our database for station/object vk4zu-13. If no packets are shown the sender has not sent any weather packets the latest 10 day(s).
| Time | Temp. | Humidity | Pressure | Rain* | Wind** | Luminosity | Snow |
|---|---|---|---|---|---|---|---|
| 1777696166 | 22.22° C | 88% | 1020.6 hPa | 0.51 mm | - | 185 W/m² | - |
| 1777696104 | 22.22° C | 88% | 1020.6 hPa | 0.51 mm | - | 214 W/m² | - |
| 1777696040 | 21.67° C | 87% | 1020.7 hPa | 0.51 mm | - | 214 W/m² | - |
| 1777695983 | 21.67° C | 87% | 1020.7 hPa | 0.51 mm | - | 199 W/m² | - |
| 1777695942 | 21.67° C | 87% | 1020.6 hPa | 0.51 mm | - | 183 W/m² | - |
| 1777695847 | 21.67° C | 88% | 1020.6 hPa | 0.51 mm | - | 167 W/m² | - |
| 1777695790 | 21.67° C | 87% | 1020.6 hPa | 0.51 mm | - | 158 W/m² | - |
| 1777695722 | 21.67° C | 87% | 1020.6 hPa | 0.51 mm | - | 153 W/m² | - |
| 1777695648 | 21.67° C | 86% | 1020.6 hPa | 0.51 mm | - | 158 W/m² | - |
| 1777695579 | 21.67° C | 87% | 1020.7 hPa | 0.51 mm | - | 163 W/m² | - |
| 1777695527 | 21.67° C | 86% | 1020.7 hPa | 0.51 mm | - | 167 W/m² | - |
| 1777695438 | 21.67° C | 89% | 1020.8 hPa | 0.51 mm | - | 169 W/m² | - |
| 1777695370 | 21.67° C | 89% | 1020.9 hPa | 0.51 mm | - | 169 W/m² | - |
| 1777695298 | 21.67° C | 87% | 1020.7 hPa | 0.51 mm | - | 162 W/m² | - |
| 1777695231 | 21.67° C | 88% | 1020.9 hPa | 0.51 mm | - | 156 W/m² | - |
| 1777695171 | 21.67° C | 87% | 1020.8 hPa | 0.51 mm | - | 151 W/m² | - |
| 1777695108 | 22.22° C | 89% | 1020.9 hPa | 0.51 mm | - | 144 W/m² | - |
| 1777695049 | 21.67° C | 89% | 1020.9 hPa | 0.51 mm | - | 146 W/m² | - |
| 1777694986 | 21.67° C | 89% | 1020.9 hPa | 0.51 mm | - | 149 W/m² | - |
| 1777694924 | 21.67° C | 89% | 1020.9 hPa | 0.51 mm | - | 155 W/m² | - |
| 1777694861 | 21.67° C | 89% | 1020.9 hPa | 0.51 mm | - | 155 W/m² | - |
| 1777694786 | 21.67° C | 88% | 1020.8 hPa | 0.51 mm | - | 155 W/m² | - |
| 1777694713 | 21.67° C | 88% | 1020.9 hPa | 0.51 mm | - | 146 W/m² | - |
| 1777694642 | 21.67° C | 89% | 1020.9 hPa | 0.51 mm | - | 188 W/m² | - |
| 1777694576 | 21.67° C | 89% | 1021 hPa | 0.51 mm | - | 251 W/m² | - |
* Rain latest hour (hover to see other rain measurements)
** Current wind speed in m/s (hover to see current wind gust speed)